This is the latest recevied weather packets stored in our database for station/object HB9Y1. If no packets are shown the sender has not sent any weather packets the latest 10 day(s).
| Time | Temp. | Humidity | Pressure | Rain* | Wind** | Luminosity | Snow |
|---|---|---|---|---|---|---|---|
| 1777182399 | 5° C | 64% | 1017.9 hPa | 0 mm | - | 31 W/m² | - |
| 1777181787 | 5° C | 64% | 1018.1 hPa | 0 mm | - | 28 W/m² | - |
| 1777178204 | 5° C | 65% | 1017.4 hPa | 0 mm | - | 6 W/m² | - |
| 1777173384 | 5.56° C | 64% | 1017.7 hPa | 0 mm | - | 0 W/m² | - |
| 1777171007 | 5° C | 67% | 1017.7 hPa | 0 mm | - | 0 W/m² | - |
| 1777169178 | 5.56° C | 67% | 1017.7 hPa | 0 mm | - | 0 W/m² | - |
| 1777166186 | 6.11° C | 67% | 1017.7 hPa | 0 mm | - | 0 W/m² | - |
| 1777163178 | 6.11° C | 66% | 1017.7 hPa | 0 mm | - | 0 W/m² | - |
| 1777161386 | 6.11° C | 67% | 1017.7 hPa | 0 mm | - | 0 W/m² | - |
| 1777160778 | 6.11° C | 68% | 1017.7 hPa | 0 mm | - | 0 W/m² | - |
| 1777160186 | 6.11° C | 67% | 1017.7 hPa | 0 mm | - | 0 W/m² | - |
| 1777154778 | 6.67° C | 67% | 1017.7 hPa | 0 mm | - | 0 W/m² | - |
| 1777145786 | 8.33° C | 63% | 1017.3 hPa | 0 mm | - | 0 W/m² | - |
| 1777144584 | 8.33° C | 62% | 1017.3 hPa | 0 mm | - | 0 W/m² | - |
| 1777141578 | 9.44° C | 60% | 1016.5 hPa | 0 mm | - | 3 W/m² | - |
| 1777137386 | 14.44° C | 52% | 1016.1 hPa | 0 mm | - | 312 W/m² | - |
| 1777135578 | 14.44° C | 49% | 1015.8 hPa | 0 mm | - | 426 W/m² | - |
| 1777120584 | 16.11° C | 47% | 1015.7 hPa | 0 mm | - | 742 W/m² | - |
| 1777118186 | 15° C | 47% | 1015.4 hPa | 0 mm | - | 745 W/m² | - |
| 1777112186 | 13.89° C | 49% | 1016.1 hPa | 0 mm | - | 670 W/m² | - |
| 1777111578 | 13.33° C | 48% | 1016.1 hPa | 0 mm | - | 657 W/m² | - |
| 1777104986 | 10.56° C | 57% | 1016.1 hPa | 0 mm | - | 373 W/m² | - |
| 1777099578 | 8.33° C | 60% | 1016.5 hPa | 0 mm | - | 164 W/m² | - |
| 1777091177 | 5° C | 71% | 1016.1 hPa | 0 mm | - | 2 W/m² | - |
| 1777090626 | 5° C | 72% | 1016.5 hPa | 0 mm | - | 0 W/m² | - |
* Rain latest hour (hover to see other rain measurements)
** Current wind speed in m/s (hover to see current wind gust speed)